Time;durP1;ratioP1;P1;durP2;ratioP2;P2;SDS_P1;SDS_P2;PMS_P1;PMS_P2;Temp;Humidity;BMP_temperature;BMP_pressure;BME280_temperature;BME280_humidity;BME280_pressure;Samples;Min_cycle;Max_cycle;Signal;HPM_P1;HPM_P2
2024/01/06 00:03:25;;;;;;;35.90;14.60;;;;;;;-0.68;78.16;99921.47;681822;1262;139950;-79
2024/01/06 00:18:29;;;;;;;65.40;21.90;;;;;;;-0.67;78.11;99921.62;681831;1261;140133;-79
2024/01/06 00:33:34;;;;;;;;;;;;;;;-0.78;78.11;99921.08;681887;1262;139545;-79
2024/01/06 00:48:37;;;;;;;64.40;17.40;;;;;;;-0.86;78.14;99928.34;681918;1262;126968;-80
2024/01/06 01:03:41;;;;;;;30.70;13.40;;;;;;;-0.78;78.68;99934.48;681853;1262;140369;-79
2024/01/06 01:18:45;;;;;;;55.20;20.30;;;;;;;-0.60;78.96;99937.79;681899;1260;141212;-79
2024/01/06 01:33:50;;;;;;;69.50;20.70;;;;;;;-0.45;78.29;99939.14;681833;1264;142312;-79
2024/01/06 01:48:55;;;;;;;20.00;9.90;;;;;;;-0.51;78.75;99949.03;681984;1261;139888;-79
2024/01/06 02:03:59;;;;;;;23.50;12.10;;;;;;;-0.58;78.88;99953.46;681801;1263;141045;-79
2024/01/06 02:19:03;;;;;;;20.20;9.30;;;;;;;-0.56;79.20;99963.19;681898;1265;140718;-79
2024/01/06 02:34:07;;;;;;;20.80;9.00;;;;;;;-0.57;79.42;99958.94;681925;1262;141430;-79
2024/01/06 02:49:11;;;;;;;19.70;8.50;;;;;;;-0.58;79.45;99957.44;681947;1265;140426;-79
2024/01/06 03:04:14;;;;;;;17.30;7.30;;;;;;;-0.55;79.75;99952.11;681894;1262;139603;-79
2024/01/06 03:19:20;;;;;;;16.20;7.20;;;;;;;-0.40;79.98;99957.80;681812;1262;140531;-79
2024/01/06 03:34:25;;;;;;;16.00;7.90;;;;;;;-0.36;79.83;99954.67;681831;1263;139799;-79
2024/01/06 03:49:28;;;;;;;23.00;9.70;;;;;;;-0.12;79.71;99958.16;681803;1265;140227;-79
2024/01/06 04:04:32;;;;;;;18.00;8.90;;;;;;;-0.02;79.31;99962.52;681766;1265;140184;-79
2024/01/06 04:19:36;;;;;;;16.40;7.50;;;;;;;-0.06;79.57;99966.11;681756;1265;140616;-80
2024/01/06 04:34:41;;;;;;;17.10;7.70;;;;;;;-0.12;79.51;99965.91;681995;1265;139923;-79
2024/01/06 04:49:45;;;;;;;17.10;7.30;;;;;;;-0.05;79.23;99965.41;681701;1265;140263;-79
2024/01/06 05:04:49;;;;;;;14.40;8.40;;;;;;;0.02;79.77;99970.22;681848;1265;140107;-80
2024/01/06 05:19:54;;;;;;;15.80;7.80;;;;;;;0.15;79.50;99979.39;681750;1265;141311;-79
2024/01/06 05:35:01;;;;;;;21.00;8.60;;;;;;;0.30;79.29;100005.16;681903;1265;140078;-79
2024/01/06 05:50:07;;;;;;;38.70;17.50;;;;;;;0.37;79.26;100027.70;681810;1265;139946;-79
2024/01/06 06:05:11;;;;;;;;;;;;;;;0.36;79.41;100036.98;681716;1265;140888;-80
2024/01/06 06:20:15;;;;;;;75.50;26.30;;;;;;;0.26;79.51;100063.82;681880;1265;127292;-79
2024/01/06 06:35:19;;;;;;;31.30;14.70;;;;;;;0.24;79.58;100078.04;681917;1265;140205;-80
2024/01/06 06:50:23;;;;;;;37.30;21.60;;;;;;;0.05;79.10;100094.05;681693;1265;140321;-79
2024/01/06 07:05:26;;;;;;;51.40;22.50;;;;;;;-0.10;78.89;100112.66;681788;1261;140519;-79
2024/01/06 07:20:31;;;;;;;92.70;28.50;;;;;;;-0.06;78.31;100114.19;681770;1265;140179;-79
2024/01/06 07:35:35;;;;;;;52.10;15.10;;;;;;;0.03;77.75;100116.88;681892;1265;141018;-79
2024/01/06 07:50:39;;;;;;;260.70;67.70;;;;;;;0.07;77.75;100118.90;681695;1265;141185;-79
2024/01/06 08:05:43;;;;;;;128.60;50.80;;;;;;;0.32;77.76;100127.38;681467;1266;140750;-79
2024/01/06 08:20:47;;;;;;;52.70;24.60;;;;;;;0.60;77.55;100160.80;681746;1266;140588;-79
2024/01/06 08:35:51;;;;;;;190.50;71.80;;;;;;;0.73;77.34;100177.71;681926;1265;141195;-79
2024/01/06 08:50:56;;;;;;;183.20;63.50;;;;;;;1.17;78.20;100201.55;681751;1270;139821;-80
2024/01/06 09:06:00;;;;;;;813.30;339.70;;;;;;;1.71;77.88;100211.25;681965;1267;140912;-79
2024/01/06 09:21:05;;;;;;;98.50;33.80;;;;;;;2.00;76.81;100235.39;681693;1266;140154;-79
2024/01/06 09:36:11;;;;;;;53.20;20.90;;;;;;;3.99;77.62;100259.86;681730;1277;139505;-77
2024/01/06 09:51:18;;;;;;;;;;;;;;;3.49;73.39;100283.64;681339;1265;139957;-77
2024/01/06 10:06:22;;;;;;;38.60;15.70;;;;;;;2.51;71.75;100289.98;681985;1266;126152;-80
2024/01/06 10:21:26;;;;;;;63.20;21.90;;;;;;;2.04;70.45;100302.13;681813;1265;140280;-79
2024/01/06 10:36:31;;;;;;;68.60;26.50;;;;;;;2.04;70.57;100300.26;681738;1265;140878;-80
2024/01/06 10:51:38;;;;;;;57.40;21.30;;;;;;;1.80;69.59;100306.46;681719;1261;140168;-79
2024/01/06 11:06:43;;;;;;;172.20;51.60;;;;;;;1.85;69.03;100298.63;681889;1267;139906;-80
2024/01/06 11:21:48;;;;;;;114.60;38.10;;;;;;;1.77;68.74;100287.48;681787;1266;140737;-79
2024/01/06 11:36:52;;;;;;;121.50;37.40;;;;;;;1.75;68.16;100288.45;681730;1265;139951;-79
2024/01/06 11:51:57;;;;;;;159.10;56.20;;;;;;;1.56;67.85;100294.40;681540;1268;141082;-79
2024/01/06 12:07:08;;;;;;;112.80;40.50;;;;;;;1.65;68.14;100300.85;681930;1263;140125;-79
2024/01/06 12:22:14;;;;;;;134.50;48.90;;;;;;;1.51;68.09;100305.16;681795;1260;140530;-79
2024/01/06 12:37:18;;;;;;;;;;;;;;;1.39;69.29;100315.23;681726;1265;140698;-78
2024/01/06 12:52:22;;;;;;;306.50;78.10;;;;;;;1.35;69.36;100313.90;681694;1260;125822;-78
2024/01/06 13:07:25;;;;;;;347.70;112.30;;;;;;;1.23;69.98;100316.85;681997;1262;141557;-77
2024/01/06 13:22:30;;;;;;;174.60;50.10;;;;;;;0.99;70.17;100323.19;681741;1261;140996;-77
2024/01/06 13:37:35;;;;;;;95.80;31.50;;;;;;;0.88;70.35;100335.41;681748;1261;141502;-78
2024/01/06 13:52:39;;;;;;;107.70;37.60;;;;;;;0.80;70.88;100355.25;681690;1263;139963;-77
2024/01/06 14:07:45;;;;;;;104.70;34.80;;;;;;;0.67;71.07;100365.98;681883;1262;140742;-78
2024/01/06 14:22:49;;;;;;;;;;;;;;;0.32;70.62;100380.62;681797;1261;141009;-77
2024/01/06 14:37:54;;;;;;;282.30;82.30;;;;;;;0.04;71.26;100394.86;681944;1265;128259;-78
2024/01/06 14:52:57;;;;;;;324.00;90.10;;;;;;;-0.37;71.30;100403.61;681748;1265;140115;-78
2024/01/06 15:08:01;;;;;;;342.00;97.50;;;;;;;-0.63;71.45;100427.17;681996;1265;140445;-79
2024/01/06 15:23:05;;;;;;;193.90;69.50;;;;;;;-0.88;72.19;100445.97;681778;1260;140395;-79
2024/01/06 15:38:09;;;;;;;516.70;141.20;;;;;;;-1.04;72.25;100465.80;681803;1262;139900;-79
2024/01/06 15:53:14;;;;;;;259.90;82.40;;;;;;;-1.31;72.56;100478.09;681785;1265;140269;-79
2024/01/06 16:08:18;;;;;;;180.30;54.30;;;;;;;-1.51;72.75;100493.03;681825;1265;141078;-79
2024/01/06 16:23:24;;;;;;;181.50;57.10;;;;;;;-1.63;73.34;100505.44;681625;1265;140589;-80
2024/01/06 16:38:28;;;;;;;142.30;46.70;;;;;;;-1.75;73.30;100512.73;681559;1262;140685;-79
2024/01/06 16:53:36;;;;;;;273.30;73.80;;;;;;;-1.80;73.82;100518.37;681755;1262;140548;-80
2024/01/06 17:08:42;;;;;;;75.70;21.90;;;;;;;-1.67;73.53;100533.20;681782;1262;140285;-79
2024/01/06 17:23:47;;;;;;;92.30;27.50;;;;;;;-1.25;73.19;100549.47;681732;1265;140228;-80
2024/01/06 17:38:51;;;;;;;65.00;24.60;;;;;;;-0.94;72.55;100565.39;681669;1265;139949;-80
2024/01/06 17:53:55;;;;;;;68.50;25.00;;;;;;;-0.75;72.23;100587.73;681835;1265;139754;-79
2024/01/06 18:09:02;;;;;;;50.40;16.40;;;;;;;-0.77;71.91;100596.55;681928;1262;140757;-80
2024/01/06 18:24:05;;;;;;;58.00;18.00;;;;;;;-0.75;71.41;100612.13;681687;1260;140555;-79
2024/01/06 18:39:09;;;;;;;38.90;15.40;;;;;;;-0.84;71.41;100633.90;681749;1262;140859;-80
2024/01/06 18:54:13;;;;;;;125.40;37.00;;;;;;;-0.85;71.91;100649.20;681690;1265;140422;-80
2024/01/06 19:09:34;;;;;;;148.10;42.10;;;;;;;-0.99;70.71;100647.64;681932;1264;140818;-80
2024/01/06 19:24:40;;;;;;;113.30;43.40;;;;;;;-1.37;70.35;100655.92;681522;1265;140502;-79
2024/01/06 19:39:47;;;;;;;183.40;70.50;;;;;;;-1.62;70.84;100662.17;681781;1265;140005;-80
2024/01/06 19:54:53;;;;;;;144.80;46.30;;;;;;;-1.47;71.27;100652.10;681758;1262;140130;-80
2024/01/06 20:09:57;;;;;;;213.30;61.30;;;;;;;-1.70;71.85;100673.59;681889;1265;140645;-80
2024/01/06 20:25:01;;;;;;;121.00;40.60;;;;;;;-2.02;71.58;100679.00;681615;1265;140814;-79
2024/01/06 20:40:09;;;;;;;46.70;16.80;;;;;;;-2.45;71.13;100667.92;681882;1265;140612;-80
2024/01/06 20:55:13;;;;;;;75.00;24.90;;;;;;;-2.50;71.50;100677.13;681781;1265;139832;-80
2024/01/06 21:10:18;;;;;;;107.40;26.70;;;;;;;-2.59;71.96;100670.85;681894;1265;140257;-80
2024/01/06 21:25:23;;;;;;;89.70;25.40;;;;;;;-2.70;72.00;100679.19;681557;1267;153610;-80
2024/01/06 21:40:27;;;;;;;45.10;14.20;;;;;;;-2.86;71.90;100679.96;681730;1266;140030;-80
2024/01/06 21:55:34;;;;;;;192.50;55.00;;;;;;;-3.16;71.94;100689.59;681562;1265;140033;-80
2024/01/06 22:10:39;;;;;;;296.70;69.00;;;;;;;-3.16;71.72;100695.44;681706;1265;140320;-81
2024/01/06 22:25:42;;;;;;;282.40;72.80;;;;;;;-3.38;71.56;100711.52;681477;1265;140920;-80
2024/01/06 22:40:49;;;;;;;129.30;34.70;;;;;;;-3.54;71.77;100711.55;681735;1269;140070;-80
2024/01/06 22:55:53;;;;;;;145.20;38.70;;;;;;;-3.68;71.96;100717.15;681731;1278;140440;-79
2024/01/06 23:10:56;;;;;;;128.40;34.00;;;;;;;-3.73;72.15;100721.36;681900;1265;141386;-79
2024/01/06 23:26:01;;;;;;;102.00;29.10;;;;;;;-3.80;72.04;100730.05;681773;1265;140742;-79
2024/01/06 23:41:06;;;;;;;160.50;44.40;;;;;;;-3.92;72.23;100737.66;681945;1265;140972;-79
2024/01/06 23:56:10;;;;;;;81.00;27.10;;;;;;;-4.08;72.23;100746.17;681796;1265;140249;-81
